createdAt,value
2018-07-19T00:00:08.583Z,18.52
2018-07-19T00:01:08.529Z,18.42
2018-07-19T00:02:08.513Z,18.37
2018-07-19T00:03:08.493Z,18.41
2018-07-19T00:04:08.480Z,18.36
2018-07-19T00:05:08.485Z,18.29
2018-07-19T00:06:08.456Z,18.30
2018-07-19T00:07:08.451Z,18.27
2018-07-19T00:08:08.474Z,18.23
2018-07-19T00:09:08.417Z,18.21
2018-07-19T00:10:08.406Z,18.18
2018-07-19T00:11:08.388Z,18.17
2018-07-19T00:12:08.376Z,17.96
2018-07-19T00:13:08.485Z,18.12
2018-07-19T00:14:08.352Z,17.93
2018-07-19T00:15:08.344Z,17.99
2018-07-19T00:16:08.328Z,17.90
2018-07-19T00:17:08.309Z,17.99
2018-07-19T00:18:08.294Z,17.97
2018-07-19T00:19:08.289Z,18.11
2018-07-19T00:20:08.269Z,18.18
2018-07-19T00:21:08.407Z,18.20
2018-07-19T00:22:08.245Z,18.21
2018-07-19T00:23:08.231Z,18.26
2018-07-19T00:24:08.267Z,18.41
2018-07-19T00:25:08.203Z,18.37
2018-07-19T00:26:08.193Z,18.44
2018-07-19T00:27:08.175Z,18.50
2018-07-19T00:28:08.161Z,18.45
2018-07-19T00:29:08.148Z,18.27
2018-07-19T00:30:08.136Z,17.97
2018-07-19T00:31:08.121Z,17.74
2018-07-19T00:32:08.111Z,17.52
2018-07-19T00:33:08.095Z,17.43
2018-07-19T00:34:08.090Z,17.34
2018-07-19T00:35:08.073Z,17.26
2018-07-19T00:36:08.055Z,17.48
2018-07-19T00:37:08.051Z,17.52
2018-07-19T00:38:08.035Z,17.55
2018-07-19T00:39:08.017Z,17.64
2018-07-19T00:40:08.088Z,17.66
2018-07-19T00:41:07.987Z,17.71
2018-07-19T00:42:07.976Z,17.59
2018-07-19T00:43:07.962Z,17.43
2018-07-19T00:44:07.947Z,17.19
2018-07-19T00:45:07.931Z,17.21
2018-07-19T00:46:07.922Z,17.19
2018-07-19T00:47:07.905Z,17.08
2018-07-19T00:48:07.891Z,17.16
2018-07-19T00:49:07.880Z,17.14
2018-07-19T00:50:07.866Z,17.23
2018-07-19T00:51:07.855Z,17.22
2018-07-19T00:52:07.846Z,17.34
2018-07-19T00:53:07.827Z,17.34
2018-07-19T00:54:07.813Z,17.49
2018-07-19T00:55:07.796Z,17.44
2018-07-19T00:56:07.784Z,17.52
2018-07-19T00:57:07.773Z,17.63
2018-07-19T00:58:07.760Z,17.62
2018-07-19T00:59:07.802Z,17.63
2018-07-19T01:00:07.728Z,17.68
2018-07-19T01:01:07.716Z,17.71
2018-07-19T01:02:07.701Z,17.71
2018-07-19T01:03:07.687Z,17.64
2018-07-19T01:04:07.675Z,17.56
2018-07-19T01:05:07.658Z,17.31
2018-07-19T01:06:07.647Z,17.03
2018-07-19T01:07:07.634Z,16.93
2018-07-19T01:08:07.622Z,16.89
2018-07-19T01:09:07.609Z,16.81
2018-07-19T01:10:07.589Z,16.86
2018-07-19T01:11:07.581Z,16.82
2018-07-19T01:12:07.564Z,16.81
2018-07-19T01:13:07.558Z,16.85
2018-07-19T01:14:07.535Z,16.86
2018-07-19T01:15:07.526Z,16.86
2018-07-19T01:16:07.507Z,16.94
2018-07-19T01:17:07.495Z,16.83
2018-07-19T01:18:07.479Z,16.81
2018-07-19T01:19:07.466Z,16.66
2018-07-19T01:20:07.465Z,16.61
2018-07-19T01:21:07.443Z,16.53
2018-07-19T01:22:07.423Z,16.43
2018-07-19T01:23:07.465Z,16.50
2018-07-19T01:24:07.404Z,16.41
2018-07-19T01:25:07.383Z,16.42
2018-07-19T01:26:07.371Z,16.50
2018-07-19T01:27:07.354Z,16.56
2018-07-19T01:28:07.345Z,16.49
2018-07-19T01:29:07.339Z,16.46
2018-07-19T01:30:07.313Z,16.45
2018-07-19T01:31:07.301Z,16.35
2018-07-19T01:32:07.286Z,16.28
2018-07-19T01:33:07.276Z,16.11
2018-07-19T01:34:07.262Z,16.07
2018-07-19T01:35:07.245Z,16.04
2018-07-19T01:36:07.235Z,16.00
2018-07-19T01:37:07.219Z,16.05
2018-07-19T01:38:07.204Z,16.12
2018-07-19T01:39:07.284Z,16.20
2018-07-19T01:40:07.171Z,16.30
2018-07-19T01:41:07.163Z,16.31
2018-07-19T01:42:07.170Z,16.45
2018-07-19T01:43:07.131Z,16.49
2018-07-19T01:44:07.117Z,16.52
2018-07-19T01:45:07.115Z,16.68
2018-07-19T01:46:07.095Z,16.68
2018-07-19T01:47:07.081Z,16.82
2018-07-19T01:48:07.061Z,16.91
2018-07-19T01:49:07.050Z,16.79
2018-07-19T01:50:07.036Z,16.96
2018-07-19T01:51:07.024Z,16.96
2018-07-19T01:52:07.006Z,16.81
2018-07-19T01:53:07.003Z,16.73
2018-07-19T01:54:06.976Z,16.66
2018-07-19T01:55:06.963Z,16.52
2018-07-19T01:56:06.950Z,16.41
2018-07-19T01:57:06.932Z,16.25
2018-07-19T01:58:06.917Z,16.14
2018-07-19T01:59:06.904Z,16.01
2018-07-19T02:00:06.902Z,15.86
2018-07-19T02:01:06.878Z,15.69
2018-07-19T02:02:06.861Z,15.60
2018-07-19T02:03:06.964Z,15.51
2018-07-19T02:04:06.834Z,15.49
2018-07-19T02:05:06.821Z,15.41
2018-07-19T02:06:06.804Z,15.29
2018-07-19T02:07:06.790Z,15.20
2018-07-19T02:08:06.783Z,15.07
2018-07-19T02:09:06.765Z,14.89
2018-07-19T02:10:06.749Z,14.77
2018-07-19T02:11:06.746Z,14.86
2018-07-19T02:12:06.720Z,14.88
2018-07-19T02:13:06.705Z,14.88
2018-07-19T02:14:06.704Z,14.83
2018-07-19T02:15:06.683Z,14.88
2018-07-19T02:16:06.666Z,14.91
2018-07-19T02:17:06.651Z,14.98
2018-07-19T02:18:06.635Z,15.03
2018-07-19T02:19:06.624Z,15.14
2018-07-19T02:20:06.607Z,15.13
2018-07-19T02:21:06.602Z,15.25
2018-07-19T02:22:06.678Z,15.29
2018-07-19T02:23:06.563Z,15.39
2018-07-19T02:24:06.551Z,15.41
2018-07-19T02:25:06.535Z,15.54
2018-07-19T02:26:06.523Z,15.49
2018-07-19T02:27:06.511Z,15.62
2018-07-19T02:28:06.490Z,15.57
2018-07-19T02:29:06.476Z,15.60
2018-07-19T02:30:06.480Z,15.53
2018-07-19T02:31:06.447Z,15.44
2018-07-19T02:32:06.441Z,15.46
2018-07-19T02:33:06.420Z,15.38
2018-07-19T02:34:06.403Z,15.29
2018-07-19T02:35:06.395Z,15.25
2018-07-19T02:36:06.375Z,15.23
2018-07-19T02:37:06.360Z,15.20
2018-07-19T02:38:06.446Z,15.31
2018-07-19T02:39:06.336Z,15.41
2018-07-19T02:40:06.316Z,15.44
2018-07-19T02:41:06.352Z,15.46
2018-07-19T02:42:06.289Z,15.65
2018-07-19T02:43:06.275Z,15.62
2018-07-19T02:44:06.257Z,15.72
2018-07-19T02:45:06.245Z,15.90
2018-07-19T02:46:06.229Z,15.93
2018-07-19T02:47:06.215Z,16.01
2018-07-19T02:48:06.201Z,16.04
2018-07-19T02:49:06.183Z,16.09
2018-07-19T02:50:06.178Z,16.04
2018-07-19T02:51:06.157Z,16.05
2018-07-19T02:52:06.143Z,15.97
2018-07-19T02:53:06.130Z,16.00
2018-07-19T02:54:06.121Z,15.93
2018-07-19T02:55:06.101Z,15.96
2018-07-19T02:56:06.084Z,16.05
2018-07-19T02:57:06.070Z,16.14
2018-07-19T02:58:06.057Z,16.11
2018-07-19T02:59:06.042Z,16.14
2018-07-19T03:00:06.034Z,16.14
2018-07-19T03:01:06.026Z,16.20
2018-07-19T03:02:06.153Z,16.23
2018-07-19T03:03:05.985Z,16.28
2018-07-19T03:04:05.967Z,16.15
2018-07-19T03:05:06.003Z,15.97
2018-07-19T03:06:05.939Z,15.94
2018-07-19T03:07:05.930Z,15.93
2018-07-19T03:08:05.914Z,15.90
2018-07-19T03:09:05.895Z,15.94
2018-07-19T03:10:05.881Z,15.82
2018-07-19T03:11:05.865Z,15.80
2018-07-19T03:12:05.852Z,15.67
2018-07-19T03:13:05.835Z,15.46
2018-07-19T03:14:05.824Z,15.11
2018-07-19T03:15:05.805Z,14.89
2018-07-19T03:16:05.794Z,14.77
2018-07-19T03:17:05.778Z,14.58
2018-07-19T03:18:05.821Z,14.43
2018-07-19T03:19:05.754Z,14.27
2018-07-19T03:20:05.738Z,14.24
2018-07-19T03:21:05.777Z,14.33
2018-07-19T03:22:05.707Z,14.29
2018-07-19T03:23:05.688Z,14.43
2018-07-19T03:24:05.677Z,14.54
2018-07-19T03:25:05.666Z,14.55
2018-07-19T03:26:05.648Z,14.61
2018-07-19T03:27:05.634Z,14.68
2018-07-19T03:28:05.618Z,14.75
2018-07-19T03:29:05.603Z,14.77
2018-07-19T03:30:05.585Z,14.91
2018-07-19T03:31:05.631Z,14.92
2018-07-19T03:32:05.559Z,15.09
2018-07-19T03:33:05.544Z,15.19
2018-07-19T03:34:05.532Z,15.27
2018-07-19T03:35:05.512Z,15.23
2018-07-19T03:36:05.500Z,15.39
2018-07-19T03:37:05.646Z,15.51
2018-07-19T03:38:05.468Z,15.51
2018-07-19T03:39:05.454Z,15.64
2018-07-19T03:40:05.440Z,15.71
2018-07-19T03:41:05.424Z,15.72
2018-07-19T03:42:05.412Z,15.75
2018-07-19T03:43:05.394Z,15.71
2018-07-19T03:44:05.382Z,15.71
2018-07-19T03:45:05.408Z,15.68
2018-07-19T03:46:05.351Z,15.64
2018-07-19T03:47:05.334Z,15.46
2018-07-19T03:48:05.321Z,15.54
2018-07-19T03:49:05.306Z,15.38
2018-07-19T03:50:05.296Z,15.14
2018-07-19T03:51:05.315Z,15.17
2018-07-19T03:52:05.263Z,15.07
2018-07-19T03:53:05.246Z,15.06
2018-07-19T03:54:05.231Z,15.09
2018-07-19T03:55:05.219Z,15.01
2018-07-19T03:56:05.202Z,15.16
2018-07-19T03:57:05.191Z,15.11
2018-07-19T03:58:05.171Z,15.29
2018-07-19T03:59:05.159Z,15.36
2018-07-19T04:00:05.146Z,15.44
2018-07-19T04:01:05.129Z,15.60
2018-07-19T04:02:05.117Z,15.60
2018-07-19T04:03:05.105Z,15.72
2018-07-19T04:04:05.186Z,15.76
2018-07-19T04:05:05.068Z,15.82
2018-07-19T04:06:05.062Z,15.62
2018-07-19T04:07:05.049Z,15.50
2018-07-19T04:08:05.031Z,15.47
2018-07-19T04:09:05.010Z,15.51
2018-07-19T04:10:04.995Z,15.67
2018-07-19T04:11:04.985Z,15.46
2018-07-19T04:12:04.965Z,15.41
2018-07-19T04:13:04.955Z,15.49
2018-07-19T04:14:04.936Z,15.54
2018-07-19T04:15:04.925Z,15.49
2018-07-19T04:16:04.911Z,15.50
2018-07-19T04:17:04.941Z,15.57
2018-07-19T04:18:04.878Z,15.36
2018-07-19T04:19:04.866Z,15.28
2018-07-19T04:20:04.849Z,15.25
2018-07-19T04:21:04.832Z,15.23
2018-07-19T04:22:04.821Z,15.23
2018-07-19T04:23:04.806Z,15.32
2018-07-19T04:24:04.789Z,15.51
2018-07-19T04:25:04.784Z,15.51
2018-07-19T04:26:04.763Z,15.59
2018-07-19T04:27:04.745Z,15.62
2018-07-19T04:28:04.730Z,15.62
2018-07-19T04:29:04.717Z,15.74
2018-07-19T04:30:04.700Z,15.68
2018-07-19T04:31:04.686Z,15.80
2018-07-19T04:32:04.669Z,15.86
2018-07-19T04:33:04.666Z,15.82
2018-07-19T04:34:04.644Z,15.94
2018-07-19T04:35:04.626Z,15.86
2018-07-19T04:36:04.617Z,15.89
2018-07-19T04:37:04.597Z,15.86
2018-07-19T04:38:04.582Z,15.76
2018-07-19T04:39:04.568Z,15.59
2018-07-19T04:40:04.550Z,15.69
2018-07-19T04:41:04.535Z,15.60
2018-07-19T04:42:04.525Z,15.59
2018-07-19T04:43:04.504Z,15.50
2018-07-19T04:44:04.494Z,15.47
2018-07-19T04:45:04.478Z,15.49
2018-07-19T04:46:04.463Z,15.60
2018-07-19T04:47:04.501Z,15.62
2018-07-19T04:48:04.432Z,15.71
2018-07-19T04:49:04.423Z,15.82
2018-07-19T04:50:04.425Z,15.86
2018-07-19T04:51:04.391Z,16.05
2018-07-19T04:52:04.375Z,16.15
2018-07-19T04:53:04.360Z,16.25
2018-07-19T04:54:04.347Z,16.23
2018-07-19T04:55:04.328Z,16.39
2018-07-19T04:56:04.313Z,16.52
2018-07-19T04:57:04.297Z,16.57
2018-07-19T04:58:04.284Z,16.56
2018-07-19T04:59:04.271Z,16.45
2018-07-19T05:00:04.259Z,16.53
2018-07-19T05:01:04.241Z,16.57
2018-07-19T05:02:04.236Z,16.58
2018-07-19T05:03:04.220Z,16.61
2018-07-19T05:04:04.195Z,16.66
2018-07-19T05:05:04.183Z,16.76
2018-07-19T05:06:04.230Z,16.76
2018-07-19T05:07:04.202Z,16.94
2018-07-19T05:08:04.137Z,16.91
2018-07-19T05:09:04.122Z,16.96
2018-07-19T05:10:04.106Z,16.98
2018-07-19T05:11:04.096Z,17.12
2018-07-19T05:12:04.082Z,17.06
2018-07-19T05:13:04.062Z,17.12
2018-07-19T05:14:04.099Z,17.18
2018-07-19T05:15:04.035Z,17.19
2018-07-19T05:16:04.022Z,17.26
2018-07-19T05:17:04.005Z,17.26
2018-07-19T05:18:03.995Z,17.38
2018-07-19T05:19:03.974Z,17.37
2018-07-19T05:20:03.963Z,17.48
2018-07-19T05:21:03.945Z,17.51
2018-07-19T05:22:03.932Z,17.44
2018-07-19T05:23:03.917Z,17.44
2018-07-19T05:24:03.902Z,17.49
2018-07-19T05:25:03.886Z,17.55
2018-07-19T05:26:03.876Z,17.56
2018-07-19T05:27:03.860Z,17.68
2018-07-19T05:28:03.856Z,17.70
2018-07-19T05:29:03.832Z,17.74
2018-07-19T05:30:03.821Z,17.72
2018-07-19T05:31:03.802Z,17.82
2018-07-19T05:32:03.786Z,17.82
2018-07-19T05:33:03.869Z,17.92
2018-07-19T05:34:03.755Z,17.86
2018-07-19T05:35:03.743Z,17.93
2018-07-19T05:36:03.725Z,17.93
2018-07-19T05:37:03.715Z,18.05
2018-07-19T05:38:03.703Z,18.07
2018-07-19T05:39:03.689Z,18.12
2018-07-19T05:40:03.671Z,18.12
2018-07-19T05:41:03.674Z,18.12
2018-07-19T05:42:03.671Z,18.14
2018-07-19T05:43:03.630Z,18.20
2018-07-19T05:44:03.616Z,18.23
2018-07-19T05:45:03.601Z,18.25
2018-07-19T05:46:03.585Z,18.33
2018-07-19T05:47:03.577Z,18.41
2018-07-19T05:48:03.555Z,18.44
2018-07-19T05:49:03.659Z,18.42
2018-07-19T05:50:03.530Z,18.54
2018-07-19T05:51:03.513Z,18.65
2018-07-19T05:52:03.538Z,18.65
2018-07-19T05:53:03.486Z,18.72
2018-07-19T05:54:03.478Z,18.76
2018-07-19T05:55:03.460Z,18.78
2018-07-19T05:56:03.444Z,18.80
2018-07-19T05:57:03.429Z,18.87
2018-07-19T05:58:03.415Z,18.85
2018-07-19T05:59:03.401Z,18.94
2018-07-19T06:00:03.386Z,18.95
2018-07-19T06:01:03.370Z,18.95
2018-07-19T06:02:03.356Z,19.02
2018-07-19T06:03:03.345Z,19.06
2018-07-19T06:04:03.333Z,19.06
2018-07-19T06:05:03.452Z,19.21
2018-07-19T06:06:03.300Z,19.25
2018-07-19T06:07:03.287Z,19.19
2018-07-19T06:08:03.289Z,19.29
2018-07-19T06:09:03.262Z,19.21
2018-07-19T06:10:03.245Z,19.25
2018-07-19T06:11:03.235Z,19.25
2018-07-19T06:12:03.218Z,19.29
2018-07-19T06:13:03.237Z,19.26
2018-07-19T06:14:03.188Z,19.32
2018-07-19T06:15:03.177Z,19.37
2018-07-19T06:16:03.197Z,19.40
2018-07-19T06:17:03.153Z,19.44
2018-07-19T06:18:03.137Z,19.54
2018-07-19T06:19:03.126Z,19.54
2018-07-19T06:20:03.115Z,19.68
2018-07-19T06:21:03.093Z,19.69
2018-07-19T06:22:03.078Z,19.73
2018-07-19T06:23:03.065Z,19.78
2018-07-19T06:24:03.054Z,19.84
2018-07-19T06:25:03.040Z,19.87
2018-07-19T06:26:03.024Z,19.94
2018-07-19T06:27:03.014Z,19.88
2018-07-19T06:28:03.003Z,19.96
2018-07-19T06:29:02.986Z,19.95
2018-07-19T06:30:02.974Z,19.99
2018-07-19T06:31:02.954Z,19.95
2018-07-19T06:32:03.044Z,20.02
2018-07-19T06:33:02.934Z,20.10
2018-07-19T06:34:02.916Z,20.16
2018-07-19T06:35:02.912Z,20.13
2018-07-19T06:36:02.900Z,20.11
2018-07-19T06:37:02.875Z,20.18
2018-07-19T06:38:02.861Z,20.16
2018-07-19T06:39:02.851Z,20.11
2018-07-19T06:40:02.832Z,20.16
2018-07-19T06:41:02.830Z,20.31
2018-07-19T06:42:02.805Z,20.33
2018-07-19T06:43:02.801Z,20.32
2018-07-19T06:44:02.791Z,20.39
2018-07-19T06:45:02.768Z,20.42
2018-07-19T06:46:02.754Z,20.43
2018-07-19T06:47:02.746Z,20.52
2018-07-19T06:48:02.881Z,20.57
2018-07-19T06:49:02.714Z,20.64
2018-07-19T06:50:02.706Z,20.62
2018-07-19T06:51:02.691Z,20.67
2018-07-19T06:52:02.674Z,20.62
2018-07-19T06:53:02.658Z,20.82
2018-07-19T06:54:02.646Z,20.82
2018-07-19T06:55:02.635Z,20.80
2018-07-19T06:56:02.620Z,20.87
2018-07-19T06:57:02.606Z,20.76
2018-07-19T06:58:02.593Z,20.87
2018-07-19T06:59:02.580Z,20.97
2018-07-19T07:00:02.565Z,20.97
2018-07-19T07:01:02.575Z,21.06
2018-07-19T07:02:02.544Z,21.09
2018-07-19T07:03:02.534Z,21.10
2018-07-19T07:04:02.559Z,21.19
2018-07-19T07:05:02.502Z,21.22
2018-07-19T07:06:02.492Z,21.24
2018-07-19T07:07:02.481Z,21.25
2018-07-19T07:08:02.461Z,21.25
2018-07-19T07:09:02.498Z,21.19
2018-07-19T07:10:02.445Z,21.17
2018-07-19T07:11:02.425Z,21.25
2018-07-19T07:12:02.412Z,21.31
2018-07-19T07:13:02.398Z,21.25
2018-07-19T07:14:02.380Z,21.16
2018-07-19T07:15:02.430Z,21.28
2018-07-19T07:16:02.357Z,21.29
2018-07-19T07:17:02.348Z,21.31
2018-07-19T07:18:02.343Z,21.37
2018-07-19T07:19:02.320Z,21.43
2018-07-19T07:20:02.307Z,21.52
2018-07-19T07:21:02.315Z,21.62
2018-07-19T07:22:02.284Z,21.64
2018-07-19T07:23:02.271Z,21.68
2018-07-19T07:24:02.256Z,21.69
2018-07-19T07:25:02.342Z,21.74
2018-07-19T07:26:02.225Z,21.71
2018-07-19T07:27:02.217Z,21.84
2018-07-19T07:28:02.239Z,21.94
2018-07-19T07:29:02.198Z,21.86
2018-07-19T07:30:02.185Z,21.99
2018-07-19T07:31:02.175Z,22.00
2018-07-19T07:32:02.154Z,22.05
2018-07-19T07:33:02.135Z,22.03
2018-07-19T07:34:02.135Z,22.02
2018-07-19T07:35:02.110Z,22.00
2018-07-19T07:36:02.095Z,22.02
2018-07-19T07:37:02.097Z,22.07
2018-07-19T07:38:02.081Z,22.06
2018-07-19T07:39:02.144Z,22.24
2018-07-19T07:40:02.050Z,22.24
2018-07-19T07:41:02.033Z,22.27
2018-07-19T07:42:02.023Z,22.39
2018-07-19T07:43:02.019Z,22.40
2018-07-19T07:44:02.180Z,22.46
2018-07-19T07:45:01.987Z,22.45
2018-07-19T07:46:01.973Z,22.58
2018-07-19T07:47:01.963Z,22.58
2018-07-19T07:48:01.956Z,22.55
2018-07-19T07:49:01.939Z,22.68
2018-07-19T07:50:01.923Z,22.64
2018-07-19T07:51:01.909Z,22.61
2018-07-19T07:52:01.896Z,22.64
2018-07-19T07:53:01.883Z,22.76
2018-07-19T07:54:01.874Z,22.88
2018-07-19T07:55:01.862Z,22.90
2018-07-19T07:56:01.860Z,22.83
2018-07-19T07:57:01.832Z,23.01
2018-07-19T07:58:01.822Z,23.02
2018-07-19T07:59:01.811Z,23.04
2018-07-19T08:00:01.800Z,23.07
2018-07-19T08:01:01.787Z,23.16
2018-07-19T08:02:01.774Z,23.16
2018-07-19T08:03:01.761Z,23.16
2018-07-19T08:04:01.747Z,23.16
2018-07-19T08:05:01.734Z,23.15
2018-07-19T08:06:01.724Z,23.17
2018-07-19T08:07:01.713Z,23.19
2018-07-19T08:08:01.798Z,23.19
2018-07-19T08:09:01.746Z,23.07
2018-07-19T08:10:01.676Z,23.00
2018-07-19T08:11:01.712Z,23.04
2018-07-19T08:12:01.655Z,23.00
2018-07-19T08:13:01.637Z,23.00
2018-07-19T08:14:01.622Z,23.04
2018-07-19T08:15:01.618Z,22.97
2018-07-19T08:16:01.601Z,23.02
2018-07-19T08:17:01.591Z,23.10
2018-07-19T08:18:01.576Z,23.04
2018-07-19T08:19:01.565Z,23.12
2018-07-19T08:20:01.555Z,23.16
2018-07-19T08:21:01.540Z,23.17
2018-07-19T08:22:01.545Z,23.23
2018-07-19T08:23:01.517Z,23.25
2018-07-19T08:24:01.508Z,23.31
2018-07-19T08:25:01.491Z,23.38
2018-07-19T08:26:01.530Z,23.28
2018-07-19T08:27:01.514Z,23.33
2018-07-19T08:28:01.465Z,23.50
2018-07-19T08:29:01.460Z,23.60
2018-07-19T08:30:01.431Z,23.60
2018-07-19T08:31:01.419Z,23.68
2018-07-19T08:32:01.405Z,23.69
2018-07-19T08:33:01.396Z,23.76
2018-07-19T08:34:01.389Z,23.78
2018-07-19T08:35:01.372Z,23.85
2018-07-19T08:36:01.399Z,23.78
2018-07-19T08:37:01.357Z,23.88
2018-07-19T08:38:01.336Z,23.85
2018-07-19T08:39:01.329Z,23.91
2018-07-19T08:40:01.317Z,23.91
2018-07-19T08:41:01.313Z,24.03
2018-07-19T08:42:01.286Z,24.03
2018-07-19T08:43:01.314Z,24.13
2018-07-19T08:44:01.268Z,24.24
2018-07-19T08:45:01.256Z,24.21
2018-07-19T08:46:01.244Z,24.27
2018-07-19T08:47:01.241Z,24.15
2018-07-19T08:48:01.223Z,24.13
2018-07-19T08:49:01.217Z,24.13
2018-07-19T08:50:01.196Z,24.16
2018-07-19T08:51:01.186Z,24.18
2018-07-19T08:52:01.179Z,24.09
2018-07-19T08:53:01.164Z,24.20
2018-07-19T08:54:01.159Z,24.18
2018-07-19T08:55:01.138Z,24.28
2018-07-19T08:57:01.107Z,24.46
2018-07-19T08:58:01.091Z,24.53
2018-07-19T08:59:01.103Z,24.50
2018-07-19T09:00:01.069Z,24.45
2018-07-19T09:01:01.059Z,24.13
2018-07-19T09:02:01.049Z,24.05
2018-07-19T09:03:01.042Z,24.05
2018-07-19T09:04:01.123Z,24.00
2018-07-19T09:05:01.013Z,24.06
2018-07-19T09:06:01.007Z,24.18
2018-07-19T09:07:01.047Z,24.27
2018-07-19T09:08:00.983Z,24.37
2018-07-19T09:09:00.975Z,24.46
2018-07-19T09:10:00.953Z,24.65
2018-07-19T09:11:00.946Z,24.67
2018-07-19T09:12:00.933Z,24.68
2018-07-19T09:13:00.922Z,24.62
2018-07-19T09:14:00.930Z,24.71
2018-07-19T09:15:00.916Z,24.78
2018-07-19T09:16:00.891Z,24.83
2018-07-19T09:17:00.878Z,24.77
2018-07-19T09:18:00.872Z,24.91
2018-07-19T09:19:00.854Z,24.96
2018-07-19T09:20:00.874Z,25.14
2018-07-19T09:21:00.829Z,25.23
2018-07-19T09:22:00.837Z,25.13
2018-07-19T09:23:00.817Z,25.20
2018-07-19T09:24:00.806Z,25.13
2018-07-19T09:25:00.802Z,25.10
2018-07-19T09:26:00.781Z,25.06
2018-07-19T09:27:00.770Z,24.76
2018-07-19T09:28:00.751Z,24.85
2018-07-19T09:29:00.744Z,24.71
2018-07-19T09:30:00.738Z,24.50
2018-07-19T09:31:00.727Z,24.60
2018-07-19T09:32:00.711Z,24.47
2018-07-19T09:33:00.700Z,24.37
2018-07-19T09:34:00.690Z,24.27
2018-07-19T09:35:00.681Z,24.40
2018-07-19T09:36:00.779Z,24.55
2018-07-19T09:37:00.661Z,24.77
2018-07-19T09:38:00.639Z,24.85
2018-07-19T09:39:00.636Z,25.06
2018-07-19T09:40:00.630Z,25.14
2018-07-19T09:41:00.612Z,25.30
2018-07-19T09:42:00.603Z,25.45
2018-07-19T09:43:00.584Z,25.60
2018-07-19T09:44:00.577Z,25.60
2018-07-19T09:45:00.567Z,25.60
2018-07-19T09:46:00.565Z,25.60
2018-07-19T09:47:00.543Z,25.65
2018-07-19T09:48:00.529Z,25.75
2018-07-19T09:49:00.522Z,25.80
2018-07-19T09:50:00.506Z,25.64
2018-07-19T09:51:00.499Z,25.67
2018-07-19T09:52:00.488Z,25.79
2018-07-19T09:53:00.487Z,25.76
2018-07-19T09:54:00.467Z,25.91
2018-07-19T09:55:00.461Z,26.10
2018-07-19T09:56:00.445Z,26.05
2018-07-19T09:57:00.445Z,26.01
2018-07-19T09:58:00.433Z,26.15
2018-07-19T09:59:00.423Z,26.21
2018-07-19T10:00:00.464Z,26.26
2018-07-19T10:01:00.392Z,26.36
2018-07-19T10:02:00.378Z,26.51
2018-07-19T10:03:00.370Z,26.62
2018-07-19T10:04:00.357Z,26.66
2018-07-19T10:05:00.350Z,26.76
2018-07-19T10:06:00.333Z,26.57
2018-07-19T10:07:00.323Z,26.57
2018-07-19T10:08:00.315Z,26.58
2018-07-19T10:09:00.304Z,26.69
2018-07-19T10:10:00.347Z,26.77
2018-07-19T10:11:00.288Z,26.69
2018-07-19T10:12:00.277Z,26.58
2018-07-19T10:13:00.268Z,26.50
2018-07-19T10:14:00.253Z,26.36
2018-07-19T10:15:00.242Z,26.18
2018-07-19T10:16:00.322Z,26.20
2018-07-19T10:17:00.223Z,26.23
2018-07-19T10:18:00.210Z,26.20
2018-07-19T10:19:00.209Z,26.01
2018-07-19T10:20:00.202Z,26.06
2018-07-19T10:21:00.185Z,26.12
2018-07-19T10:22:00.169Z,26.17
2018-07-19T10:23:00.158Z,26.30
2018-07-19T10:24:00.151Z,26.40
2018-07-19T10:25:00.139Z,26.43
2018-07-19T10:26:00.177Z,26.51
2018-07-19T10:27:00.120Z,26.20
2018-07-19T10:28:00.107Z,25.98
2018-07-19T10:29:00.103Z,25.76
2018-07-19T10:30:00.097Z,25.72
2018-07-19T10:31:00.079Z,25.82
2018-07-19T10:32:00.234Z,25.90
2018-07-19T10:33:00.056Z,25.94
2018-07-19T10:34:00.051Z,25.90
2018-07-19T10:35:00.036Z,25.80
2018-07-19T10:36:00.027Z,25.79
2018-07-19T10:37:00.115Z,25.88
2018-07-19T10:38:00.035Z,25.90
2018-07-19T10:39:00.000Z,26.01
2018-07-19T10:40:00.234Z,26.25
2018-07-19T10:40:59.976Z,26.29
2018-07-19T10:41:59.970Z,26.47
2018-07-19T10:43:00.013Z,26.65
2018-07-19T10:43:59.957Z,26.76
2018-07-19T10:44:59.941Z,26.88
2018-07-19T10:45:59.952Z,27.10
2018-07-19T10:46:59.914Z,27.04
2018-07-19T10:47:59.912Z,27.04
2018-07-19T10:48:59.895Z,27.28
2018-07-19T10:49:59.899Z,27.21
2018-07-19T10:50:59.876Z,27.31
2018-07-19T10:51:59.917Z,27.37
2018-07-19T10:53:00.005Z,27.27
2018-07-19T10:53:59.849Z,27.28
2018-07-19T10:54:59.840Z,27.10
2018-07-19T10:55:59.825Z,27.17
2018-07-19T10:56:59.813Z,27.28
2018-07-19T10:57:59.807Z,27.39
2018-07-19T10:58:59.798Z,27.36
2018-07-19T10:59:59.787Z,27.31
2018-07-19T11:00:59.775Z,27.59
2018-07-19T11:01:59.765Z,27.57
2018-07-19T11:02:59.756Z,27.41
2018-07-19T11:03:59.746Z,27.39
2018-07-19T11:04:59.736Z,27.36
2018-07-19T11:05:59.725Z,27.29
2018-07-19T11:06:59.723Z,27.34
2018-07-19T11:07:59.706Z,27.22
2018-07-19T11:08:59.698Z,27.31
2018-07-19T11:09:59.786Z,27.28
2018-07-19T11:10:59.694Z,27.12
2018-07-19T11:11:59.672Z,27.10
2018-07-19T11:12:59.657Z,27.00
2018-07-19T11:13:59.645Z,26.77
2018-07-19T11:14:59.638Z,26.84
2018-07-19T11:15:59.625Z,26.94
2018-07-19T11:16:59.643Z,26.82
2018-07-19T11:17:59.606Z,26.80
2018-07-19T11:18:59.603Z,26.80
2018-07-19T11:19:59.593Z,26.82
2018-07-19T11:20:59.632Z,26.80
2018-07-19T11:21:59.571Z,27.06
2018-07-19T11:22:59.558Z,27.32
2018-07-19T11:23:59.553Z,27.49
2018-07-19T11:24:59.544Z,27.79
2018-07-19T11:25:59.529Z,27.82
2018-07-19T11:26:59.524Z,27.84
2018-07-19T11:27:59.514Z,27.63
2018-07-19T11:28:59.511Z,27.47
2018-07-19T11:29:59.512Z,27.28
2018-07-19T11:30:59.488Z,27.21
2018-07-19T11:31:59.479Z,27.14
2018-07-19T11:32:59.529Z,27.17
2018-07-19T11:33:59.467Z,27.28
2018-07-19T11:34:59.462Z,27.37
2018-07-19T11:35:59.450Z,27.31
2018-07-19T11:36:59.431Z,27.57
2018-07-19T11:37:59.424Z,27.85
2018-07-19T11:38:59.415Z,28.00
2018-07-19T11:39:59.405Z,27.69
2018-07-19T11:40:59.391Z,27.55
2018-07-19T11:41:59.382Z,27.34
2018-07-19T11:42:59.377Z,27.32
2018-07-19T11:43:59.363Z,27.27
2018-07-19T11:44:59.365Z,27.25
2018-07-19T11:45:59.396Z,27.19
2018-07-19T11:46:59.333Z,27.25
2018-07-19T11:47:59.327Z,27.17
2018-07-19T11:48:59.359Z,27.07
2018-07-19T11:49:59.378Z,26.85
2018-07-19T11:50:59.294Z,26.72
2018-07-19T11:51:59.287Z,26.77
2018-07-19T11:52:59.282Z,27.10
2018-07-19T11:53:59.271Z,27.21
2018-07-19T11:54:59.256Z,27.37
2018-07-19T11:55:59.250Z,27.50
2018-07-19T11:56:59.255Z,27.46
2018-07-19T11:57:59.227Z,27.49
2018-07-19T11:58:59.218Z,27.43
2018-07-19T11:59:59.218Z,26.84
2018-07-19T12:00:59.199Z,26.60
2018-07-19T12:01:59.252Z,26.55
2018-07-19T12:02:59.179Z,26.54
2018-07-19T12:03:59.170Z,26.36
2018-07-19T12:04:59.159Z,26.50
2018-07-19T12:05:59.160Z,26.47
2018-07-19T12:06:59.140Z,26.45
2018-07-19T12:07:59.148Z,26.48
2018-07-19T12:08:59.120Z,26.45
2018-07-19T12:09:59.121Z,26.26
2018-07-19T12:10:59.100Z,26.29
2018-07-19T12:11:59.088Z,26.18
2018-07-19T12:12:59.080Z,26.10
2018-07-19T12:13:59.070Z,26.07
2018-07-19T12:14:59.211Z,26.15
2018-07-19T12:15:59.048Z,26.25
2018-07-19T12:16:59.045Z,26.15
2018-07-19T12:17:59.131Z,26.13
2018-07-19T12:18:59.028Z,26.05
2018-07-19T12:19:59.015Z,26.01
2018-07-19T12:20:58.999Z,26.10
2018-07-19T12:21:59.092Z,26.07
2018-07-19T12:22:59.034Z,26.05
2018-07-19T12:23:58.970Z,26.13
2018-07-19T12:24:58.960Z,25.98
2018-07-19T12:25:58.950Z,26.01
2018-07-19T12:26:58.939Z,26.12
2018-07-19T12:27:58.930Z,26.01
2018-07-19T12:28:58.920Z,25.99
2018-07-19T12:29:58.908Z,26.07
2018-07-19T12:30:58.901Z,25.98
2018-07-19T12:31:58.890Z,26.10
2018-07-19T12:32:58.879Z,26.20
2018-07-19T12:33:58.880Z,26.13
2018-07-19T12:34:58.868Z,26.20
2018-07-19T12:35:58.850Z,26.23
2018-07-19T12:36:58.886Z,26.18
2018-07-19T12:37:58.827Z,26.18
2018-07-19T12:38:58.927Z,26.13
2018-07-19T12:39:58.808Z,26.09
2018-07-19T12:40:58.802Z,26.07
2018-07-19T12:41:58.801Z,26.18
2018-07-19T12:42:58.777Z,26.23
2018-07-19T12:43:58.770Z,26.15
2018-07-19T12:44:58.758Z,26.09
2018-07-19T12:45:58.745Z,26.20
2018-07-19T12:46:58.743Z,26.21
2018-07-19T12:47:58.728Z,26.12
2018-07-19T12:48:58.741Z,26.32
2018-07-19T12:49:58.707Z,26.43
2018-07-19T12:50:58.696Z,26.65
2018-07-19T12:51:58.704Z,26.80
2018-07-19T12:52:58.672Z,26.63